Time;durP1;ratioP1;P1;durP2;ratioP2;P2;SDS_P1;SDS_P2;PMS_P1;PMS_P2;Temp;Humidity;BMP_temperature;BMP_pressure;BME280_temperature;BME280_humidity;BME280_pressure;Samples;Min_cycle;Max_cycle;Signal;HPM_P1;HPM_P2
2023/08/01 00:00:01;;;;;;;4.30;3.00;;;;;;;18.97;68.75;99600.39;102748;277;93852;-58
2023/08/01 00:02:46;;;;;;;6.20;3.00;;;;;;;18.97;68.76;99601.38;102547;277;97877;-57
2023/08/01 00:05:28;;;;;;;5.20;3.10;;;;;;;18.95;68.73;99602.63;102761;277;119580;-55
2023/08/01 00:08:05;;;;;;;4.80;3.20;;;;;;;18.94;68.81;99601.73;102703;277;106410;-55
2023/08/01 00:10:47;;;;;;;4.60;3.50;;;;;;;18.93;68.67;99601.83;102741;277;114052;-56
2023/08/01 00:13:31;;;;;;;6.20;3.40;;;;;;;18.93;68.77;99599.36;102774;277;96107;-57
2023/08/01 00:16:09;;;;;;;5.30;3.20;;;;;;;18.93;68.74;99598.55;102770;277;95769;-52
2023/08/01 00:18:48;;;;;;;6.50;3.70;;;;;;;18.93;68.66;99588.98;102767;273;118702;-54
2023/08/01 00:21:26;;;;;;;4.20;3.20;;;;;;;18.94;68.69;99591.16;102826;277;104581;-53
2023/08/01 00:24:12;;;;;;;5.50;3.20;;;;;;;18.93;68.65;99590.27;102755;277;114567;-53
2023/08/01 00:26:55;;;;;;;6.20;3.40;;;;;;;18.93;68.67;99590.33;102774;277;94522;-55
2023/08/01 00:29:35;;;;;;;4.70;3.10;;;;;;;18.91;68.63;99590.31;102546;278;97762;-55
2023/08/01 00:32:10;;;;;;;5.30;3.20;;;;;;;18.90;68.74;99588.29;102535;278;116780;-58
2023/08/01 00:34:47;;;;;;;5.50;3.20;;;;;;;18.88;68.70;99588.05;102419;278;104060;-54
2023/08/01 00:37:30;;;;;;;4.90;3.70;;;;;;;18.88;68.68;99585.09;102502;278;113142;-56
2023/08/01 00:40:14;;;;;;;5.40;3.70;;;;;;;18.89;68.57;99579.73;102518;278;97090;-57
2023/08/01 00:42:55;;;;;;;6.80;3.80;;;;;;;18.91;68.67;99579.91;102561;278;97357;-57
2023/08/01 00:45:38;;;;;;;6.50;3.60;;;;;;;18.91;68.60;99578.05;102570;278;117441;-54
2023/08/01 00:48:20;;;;;;;6.10;4.00;;;;;;;18.91;68.59;99575.92;102537;278;105624;-55
2023/08/01 00:51:05;;;;;;;5.90;3.50;;;;;;;18.92;68.50;99572.59;102557;278;114531;-53
2023/08/01 00:53:42;;;;;;;6.10;3.40;;;;;;;18.90;68.56;99571.48;102616;278;94878;-53
2023/08/01 00:56:20;;;;;;;6.10;3.60;;;;;;;18.89;68.60;99567.21;102632;278;97682;-56
2023/08/01 00:58:56;;;;;;;5.40;3.20;;;;;;;18.88;68.56;99561.17;102602;278;119252;-56
2023/08/01 01:01:37;;;;;;;4.30;3.40;;;;;;;18.88;68.34;99551.38;102636;278;106090;-53
2023/08/01 01:04:20;;;;;;;7.40;3.50;;;;;;;18.88;68.39;99546.29;102598;278;113561;-53
2023/08/01 01:07:03;;;;;;;6.70;3.70;;;;;;;18.88;68.47;99535.83;102468;278;97223;-55
2023/08/01 01:09:46;;;;;;;4.80;3.30;;;;;;;18.89;68.33;99536.52;102526;278;97153;-55
2023/08/01 01:12:32;;;;;;;4.90;3.40;;;;;;;18.90;68.28;99535.41;102581;278;120645;-55
2023/08/01 01:15:11;;;;;;;5.80;3.10;;;;;;;18.91;68.38;99530.59;102580;278;105698;-54
2023/08/01 01:17:50;;;;;;;5.30;3.70;;;;;;;18.91;68.18;99533.98;102529;278;114814;-53
2023/08/01 01:20:27;;;;;;;4.40;3.00;;;;;;;18.90;68.37;99533.38;102579;278;94155;-54
2023/08/01 01:23:05;;;;;;;6.30;3.50;;;;;;;18.88;68.26;99529.31;102559;278;98377;-53
2023/08/01 01:25:58;;;;;;;5.20;3.40;;;;;;;18.86;68.32;99525.64;102544;278;119816;-56
2023/08/01 01:28:40;;;;;;;6.60;3.10;;;;;;;18.83;68.28;99522.89;102624;277;105630;-56
2023/08/01 01:31:19;;;;;;;5.70;3.20;;;;;;;18.83;68.18;99518.35;102649;277;114151;-53
2023/08/01 01:34:02;;;;;;;6.60;3.90;;;;;;;18.83;68.17;99517.20;102632;277;97110;-53
2023/08/01 01:36:37;;;;;;;5.40;3.00;;;;;;;18.81;68.25;99509.97;102672;277;96957;-56
2023/08/01 01:39:15;;;;;;;5.20;2.80;;;;;;;18.82;68.22;99505.31;102627;277;120467;-56
2023/08/01 01:41:53;;;;;;;4.20;3.20;;;;;;;18.82;68.34;99502.91;102724;277;104442;-54
2023/08/01 01:44:33;;;;;;;4.60;3.20;;;;;;;18.82;68.39;99501.48;102680;277;114970;-54
2023/08/01 01:47:14;;;;;;;5.70;3.10;;;;;;;18.81;68.25;99495.95;102663;277;92989;-54
2023/08/01 01:49:58;;;;;;;4.00;3.00;;;;;;;18.81;68.25;99492.02;102736;277;97101;-51
2023/08/01 01:52:39;;;;;;;5.20;3.00;;;;;;;18.80;68.31;99492.33;102728;277;119022;-52
2023/08/01 01:55:24;;;;;;;5.20;3.40;;;;;;;18.79;68.16;99486.52;102736;277;104104;-53
2023/08/01 01:58:02;;;;;;;7.60;3.20;;;;;;;18.77;68.30;99485.64;102655;277;114070;-53
2023/08/01 02:00:42;;;;;;;6.00;3.30;;;;;;;18.76;68.32;99483.83;102649;277;97344;-57
2023/08/01 02:03:25;;;;;;;3.70;2.60;;;;;;;18.77;68.26;99475.89;102631;277;97350;-58
2023/08/01 02:06:09;;;;;;;4.90;3.00;;;;;;;18.78;68.41;99473.39;102636;277;119755;-53
2023/08/01 02:08:46;;;;;;;5.10;3.10;;;;;;;18.76;68.29;99471.95;102641;277;104103;-53
2023/08/01 02:11:22;;;;;;;7.20;3.00;;;;;;;18.75;68.33;99467.45;102664;277;114531;-55
2023/08/01 02:14:03;;;;;;;4.80;2.50;;;;;;;18.73;68.33;99461.98;102607;277;94634;-55
2023/08/01 02:16:45;;;;;;;5.20;3.40;;;;;;;18.70;68.34;99457.46;102644;277;98597;-54
2023/08/01 02:19:24;;;;;;;6.60;3.40;;;;;;;18.66;68.35;99453.45;102652;277;120649;-54
2023/08/01 02:22:04;;;;;;;3.60;2.80;;;;;;;18.62;68.29;99453.36;102570;277;103149;-58
2023/08/01 02:24:45;;;;;;;6.60;3.00;;;;;;;18.56;68.32;99447.64;102641;277;114290;-58
2023/08/01 02:27:25;;;;;;;5.30;2.90;;;;;;;18.51;68.47;99445.97;102650;277;96429;-54
2023/08/01 02:30:05;;;;;;;5.90;3.10;;;;;;;18.47;68.68;99439.20;102687;277;96178;-57
2023/08/01 02:32:48;;;;;;;4.30;3.00;;;;;;;18.47;68.86;99436.12;102690;277;118867;-58
2023/08/01 02:35:29;;;;;;;4.80;3.00;;;;;;;18.46;68.78;99429.83;102675;277;105328;-55
2023/08/01 02:38:03;;;;;;;4.40;2.80;;;;;;;18.47;68.77;99426.06;102678;277;114354;-55
2023/08/01 02:40:39;;;;;;;5.00;3.10;;;;;;;18.48;68.83;99424.50;102698;277;93319;-55
2023/08/01 02:43:28;;;;;;;4.50;3.20;;;;;;;18.48;68.84;99421.16;102666;277;96816;-56
2023/08/01 02:46:16;;;;;;;4.50;3.10;;;;;;;18.46;68.81;99414.73;102715;269;119083;-54
2023/08/01 02:48:55;;;;;;;4.60;3.20;;;;;;;18.45;68.88;99411.77;102622;277;104845;-53
2023/08/01 02:51:36;;;;;;;5.80;3.20;;;;;;;18.45;68.98;99407.98;102626;277;112378;-54
2023/08/01 02:54:15;;;;;;;7.20;3.90;;;;;;;18.43;69.06;99408.48;102629;277;94687;-54
2023/08/01 02:57:00;;;;;;;3.70;3.10;;;;;;;18.43;69.07;99408.91;102631;277;97662;-55
2023/08/01 02:59:42;;;;;;;5.20;3.60;;;;;;;18.44;69.16;99403.45;102588;277;118928;-56
2023/08/01 03:02:21;;;;;;;5.00;3.30;;;;;;;18.44;69.23;99398.91;102663;277;105171;-55
2023/08/01 03:04:59;;;;;;;4.40;2.80;;;;;;;18.47;69.15;99398.06;102608;277;114600;-56
2023/08/01 03:07:39;;;;;;;3.90;3.00;;;;;;;18.50;69.26;99396.13;102661;277;93800;-56
2023/08/01 03:10:23;;;;;;;5.00;3.30;;;;;;;18.54;69.26;99393.80;102655;277;97936;-57
2023/08/01 03:13:02;;;;;;;4.10;3.20;;;;;;;18.57;69.10;99388.84;102670;277;119689;-58
2023/08/01 03:15:39;;;;;;;6.00;3.40;;;;;;;18.62;69.01;99379.89;102679;277;104661;-55
2023/08/01 03:18:20;;;;;;;4.30;3.30;;;;;;;18.62;69.10;99382.58;102651;277;113660;-54
2023/08/01 03:21:03;;;;;;;6.40;3.00;;;;;;;18.63;68.97;99381.04;102694;277;94251;-55
2023/08/01 03:23:41;;;;;;;4.30;3.00;;;;;;;18.64;68.94;99376.23;102738;277;96513;-55
2023/08/01 03:26:19;;;;;;;3.70;2.70;;;;;;;18.63;68.89;99377.98;102701;277;118221;-57
2023/08/01 03:29:00;;;;;;;3.50;2.60;;;;;;;18.65;68.81;99376.78;102711;277;106058;-57
2023/08/01 03:31:44;;;;;;;5.40;3.40;;;;;;;18.67;68.92;99374.11;102662;277;114828;-55
2023/08/01 03:34:24;;;;;;;4.60;3.20;;;;;;;18.70;68.83;99371.17;102692;277;93630;-54
2023/08/01 03:37:02;;;;;;;6.50;3.40;;;;;;;18.72;68.58;99368.34;102671;277;97447;-54
2023/08/01 03:39:40;;;;;;;4.90;2.90;;;;;;;18.75;68.57;99364.63;102666;277;120338;-55
2023/08/01 03:42:22;;;;;;;4.90;3.00;;;;;;;18.76;68.63;99364.96;102187;277;578500;-53
2023/08/01 03:45:05;;;;;;;6.10;3.10;;;;;;;18.77;68.40;99360.86;102589;277;115176;-55
2023/08/01 03:47:48;;;;;;;5.40;2.80;;;;;;;18.78;68.37;99357.04;102597;277;92792;-54
2023/08/01 03:50:30;;;;;;;3.80;3.00;;;;;;;18.81;68.29;99357.70;102606;277;98096;-56
2023/08/01 03:53:08;;;;;;;4.70;3.10;;;;;;;18.83;68.19;99355.73;102681;277;119319;-56
2023/08/01 03:55:48;;;;;;;6.80;3.20;;;;;;;18.85;68.14;99352.95;102716;277;105169;-55
2023/08/01 03:58:31;;;;;;;5.30;3.20;;;;;;;18.89;68.08;99345.47;102730;277;114765;-55
2023/08/01 04:01:11;;;;;;;5.60;3.00;;;;;;;18.91;68.10;99344.32;102744;277;93440;-55
2023/08/01 04:03:50;;;;;;;4.60;3.10;;;;;;;18.93;68.06;99346.02;102732;277;97697;-55
2023/08/01 04:06:31;;;;;;;3.90;3.10;;;;;;;18.96;67.98;99347.56;102780;277;119715;-54
2023/08/01 04:09:12;;;;;;;5.10;2.70;;;;;;;18.98;67.81;99348.45;102734;277;104052;-53
2023/08/01 04:11:55;;;;;;;5.80;2.70;;;;;;;19.02;67.81;99345.66;102718;277;114498;-57
2023/08/01 04:14:59;;;;;;;7.50;3.10;;;;;;;19.02;67.88;99352.08;102688;277;93456;-55
2023/08/01 04:17:39;;;;;;;6.00;2.80;;;;;;;19.07;67.82;99350.17;102668;277;97667;-56
2023/08/01 04:20:16;;;;;;;4.00;2.50;;;;;;;19.11;67.72;99348.92;102683;277;119270;-56
2023/08/01 04:22:56;;;;;;;5.00;2.80;;;;;;;19.16;67.72;99348.27;102708;277;104260;-56
2023/08/01 04:25:36;;;;;;;4.90;2.60;;;;;;;19.22;67.65;99342.10;102678;277;114953;-57
2023/08/01 04:28:17;;;;;;;8.10;2.80;;;;;;;19.31;67.65;99335.15;102631;277;94297;-57
2023/08/01 04:30:56;;;;;;;5.10;2.90;;;;;;;19.44;67.52;99338.48;102683;277;97738;-57
2023/08/01 04:33:38;;;;;;;6.00;3.00;;;;;;;19.55;67.21;99339.65;102676;277;119234;-57
2023/08/01 04:36:14;;;;;;;5.20;2.70;;;;;;;19.58;67.12;99334.34;102714;277;104624;-57
2023/08/01 04:38:50;;;;;;;3.80;2.70;;;;;;;19.55;67.05;99337.02;102647;277;114668;-57
2023/08/01 04:41:24;;;;;;;5.00;2.90;;;;;;;19.50;66.91;99333.45;102727;277;95353;-54
2023/08/01 04:44:06;;;;;;;4.60;2.80;;;;;;;19.52;66.80;99332.46;102727;277;97601;-55
2023/08/01 04:46:43;;;;;;;4.90;2.70;;;;;;;19.63;66.59;99324.48;102740;277;120117;-58
2023/08/01 04:49:26;;;;;;;7.30;3.10;;;;;;;19.79;66.50;99321.83;102766;277;105342;-56
2023/08/01 04:52:05;;;;;;;4.90;3.10;;;;;;;20.04;66.17;99320.96;102697;277;114786;-57
2023/08/01 04:54:44;;;;;;;5.90;3.00;;;;;;;20.42;66.02;99314.86;102576;277;95035;-56
2023/08/01 04:57:28;;;;;;;5.00;2.80;;;;;;;21.14;65.33;99315.08;102695;277;96842;-54
2023/08/01 05:00:10;;;;;;;6.50;2.40;;;;;;;21.56;64.10;99316.15;102708;277;119256;-53
2023/08/01 05:02:50;;;;;;;5.00;2.60;;;;;;;21.44;63.64;99310.92;102694;277;106202;-53
2023/08/01 05:05:29;;;;;;;5.10;2.40;;;;;;;21.46;63.56;99309.31;102696;277;115242;-54
2023/08/01 05:08:07;;;;;;;3.60;2.30;;;;;;;21.80;63.29;99307.16;102672;277;93799;-55
2023/08/01 05:10:47;;;;;;;5.50;2.50;;;;;;;22.61;62.34;99299.09;102691;266;96174;-52
2023/08/01 05:13:26;;;;;;;3.20;2.40;;;;;;;23.02;61.19;99298.66;102666;277;119515;-52
2023/08/01 05:16:10;;;;;;;4.30;2.60;;;;;;;23.50;60.66;99299.06;102721;277;103924;-57
2023/08/01 05:18:49;;;;;;;4.90;2.90;;;;;;;23.50;59.92;99298.41;102663;277;114649;-57
2023/08/01 05:21:31;;;;;;;5.20;2.40;;;;;;;23.21;59.18;99293.69;102749;277;93799;-54
2023/08/01 05:24:11;;;;;;;5.10;2.30;;;;;;;22.87;59.14;99292.44;102588;278;97039;-55
2023/08/01 05:26:54;;;;;;;5.00;2.20;;;;;;;22.46;59.18;99291.50;102808;277;118971;-53
2023/08/01 05:29:43;;;;;;;4.00;2.40;;;;;;;22.18;59.10;99290.52;102708;277;104972;-53
2023/08/01 05:32:24;;;;;;;4.00;2.60;;;;;;;21.95;59.25;99288.17;102763;277;113451;-54
2023/08/01 05:35:01;;;;;;;5.20;2.50;;;;;;;21.81;59.51;99285.92;102738;277;95039;-54
2023/08/01 05:37:42;;;;;;;5.10;2.20;;;;;;;21.65;59.68;99279.69;102691;277;96392;-53
2023/08/01 05:40:22;;;;;;;4.70;2.20;;;;;;;21.52;59.89;99282.21;102703;277;120106;-56
2023/08/01 05:42:58;;;;;;;3.80;2.40;;;;;;;21.50;60.11;99279.87;102703;277;104935;-57
2023/08/01 05:45:40;;;;;;;3.90;2.30;;;;;;;21.52;60.25;99274.47;102668;277;113997;-53
2023/08/01 05:48:21;;;;;;;4.70;2.40;;;;;;;21.58;60.22;99269.47;102646;277;94954;-53
2023/08/01 05:50:59;;;;;;;6.20;2.30;;;;;;;21.67;60.29;99271.70;102651;277;97657;-55
2023/08/01 05:53:37;;;;;;;3.80;2.10;;;;;;;21.80;60.20;99272.02;102630;277;120767;-54
2023/08/01 05:56:19;;;;;;;6.90;2.50;;;;;;;21.88;59.92;99272.73;102650;277;106440;-56
2023/08/01 05:58:55;;;;;;;;;;;;;;;22.00;59.78;99279.31;102602;277;114592;-56
2023/08/01 06:01:36;;;;;;;6.80;3.10;;;;;;;22.01;59.71;99278.88;102675;277;93494;-56
2023/08/01 06:04:19;;;;;;;3.30;2.40;;;;;;;22.05;59.74;99275.30;102619;277;97292;-56
2023/08/01 06:07:02;;;;;;;4.10;2.10;;;;;;;22.05;59.67;99277.34;102699;277;118511;-55
2023/08/01 06:09:41;;;;;;;3.60;2.60;;;;;;;22.08;59.68;99271.97;102666;277;104740;-54
2023/08/01 06:12:21;;;;;;;5.60;2.60;;;;;;;22.21;59.75;99272.59;102698;277;115110;-56
2023/08/01 06:15:04;;;;;;;4.00;2.50;;;;;;;22.51;59.50;99265.90;102696;277;94481;-57
2023/08/01 06:17:43;;;;;;;5.40;2.70;;;;;;;22.87;59.05;99261.59;102687;277;97714;-57
2023/08/01 06:20:21;;;;;;;6.20;2.60;;;;;;;23.08;58.33;99259.07;102677;277;119651;-53
2023/08/01 06:23:04;;;;;;;4.60;2.50;;;;;;;23.26;58.07;99256.42;102677;277;106089;-52
2023/08/01 06:25:41;;;;;;;3.70;2.30;;;;;;;23.30;57.89;99254.25;102666;277;114291;-53
2023/08/01 06:28:21;;;;;;;6.00;2.80;;;;;;;23.25;57.74;99251.81;102642;277;95153;-53
2023/08/01 06:31:02;;;;;;;5.50;2.60;;;;;;;23.22;57.38;99248.77;102650;277;97065;-57
2023/08/01 06:33:42;;;;;;;4.20;2.40;;;;;;;23.20;57.50;99249.39;102638;277;118295;-57
2023/08/01 06:36:24;;;;;;;4.70;2.60;;;;;;;23.42;57.48;99245.54;102625;277;106374;-56
2023/08/01 06:39:03;;;;;;;4.70;2.70;;;;;;;23.57;57.09;99243.37;102589;277;114145;-55
2023/08/01 06:41:38;;;;;;;8.00;2.80;;;;;;;23.57;56.61;99242.77;102658;277;94406;-53
2023/08/01 06:44:14;;;;;;;5.30;2.60;;;;;;;23.53;56.79;99236.27;102623;277;98413;-53
2023/08/01 06:46:56;;;;;;;5.80;2.40;;;;;;;23.55;56.71;99232.09;102653;277;119168;-56
2023/08/01 06:49:34;;;;;;;4.50;2.70;;;;;;;23.50;56.57;99237.30;102642;277;105835;-55
2023/08/01 06:52:10;;;;;;;4.00;2.50;;;;;;;23.42;56.57;99232.70;102606;277;113269;-56
2023/08/01 06:54:49;;;;;;;4.60;2.30;;;;;;;23.48;56.63;99230.16;102621;277;95202;-56
2023/08/01 06:57:26;;;;;;;5.30;3.30;;;;;;;23.66;56.49;99224.33;102670;277;97163;-53
2023/08/01 07:00:11;;;;;;;5.90;2.60;;;;;;;23.92;56.31;99217.77;102712;273;120031;-54
2023/08/01 07:02:45;;;;;;;4.90;2.50;;;;;;;24.13;55.97;99218.44;102747;277;105814;-53
2023/08/01 07:05:21;;;;;;;5.50;2.60;;;;;;;24.20;55.33;99216.05;102669;277;112627;-56
2023/08/01 07:08:01;;;;;;;4.90;2.30;;;;;;;24.32;55.33;99209.73;102634;277;94259;-56
2023/08/01 07:10:44;;;;;;;3.10;2.20;;;;;;;24.40;55.26;99213.95;102672;277;97465;-55
2023/08/01 07:13:22;;;;;;;6.70;2.70;;;;;;;24.40;54.88;99210.77;102619;277;120185;-54
2023/08/01 07:16:00;;;;;;;6.20;2.40;;;;;;;24.49;54.90;99209.53;102571;277;106744;-54
2023/08/01 07:18:37;;;;;;;6.20;2.70;;;;;;;24.56;54.83;99205.92;102637;277;113397;-54
2023/08/01 07:21:17;;;;;;;5.20;2.50;;;;;;;24.49;54.24;99202.39;102624;277;95107;-57
2023/08/01 07:23:58;;;;;;;4.30;2.50;;;;;;;24.54;54.34;99198.46;102615;277;97810;-57
2023/08/01 07:26:40;;;;;;;5.20;2.40;;;;;;;24.81;54.26;99195.16;102658;277;119850;-54
2023/08/01 07:29:22;;;;;;;6.10;2.20;;;;;;;25.20;54.35;99199.88;102624;277;105956;-54
2023/08/01 07:32:04;;;;;;;7.00;2.30;;;;;;;25.57;53.73;99193.23;102617;277;114675;-53
2023/08/01 07:34:42;;;;;;;4.00;2.60;;;;;;;25.76;53.01;99192.02;102601;277;94072;-54
2023/08/01 07:37:23;;;;;;;3.60;2.30;;;;;;;25.66;52.58;99190.30;102578;277;98014;-55
2023/08/01 07:40:05;;;;;;;;;;;;;;;25.60;52.82;99187.41;102618;277;119879;-55
2023/08/01 07:42:49;;;;;;;5.00;3.00;;;;;;;25.38;52.57;99187.58;102603;277;105775;-55
2023/08/01 07:45:36;;;;;;;4.60;2.20;;;;;;;25.03;52.07;99189.21;102685;277;114789;-56
2023/08/01 07:48:20;;;;;;;5.10;2.40;;;;;;;24.74;52.50;99183.38;102661;277;94814;-55
2023/08/01 07:51:03;;;;;;;4.50;2.50;;;;;;;24.54;52.90;99177.87;102707;277;98068;-53
2023/08/01 07:53:44;;;;;;;3.80;2.20;;;;;;;24.43;53.09;99178.27;102625;277;120411;-53
2023/08/01 07:56:19;;;;;;;4.40;2.30;;;;;;;24.40;53.38;99176.46;102662;277;105485;-53
2023/08/01 07:59:00;;;;;;;5.20;3.00;;;;;;;24.45;53.62;99176.80;102663;277;114503;-54
2023/08/01 08:01:42;;;;;;;3.80;2.50;;;;;;;24.49;53.79;99169.25;102655;277;93465;-58
2023/08/01 08:04:18;;;;;;;3.40;2.40;;;;;;;24.55;53.56;99169.55;102667;277;97557;-57
2023/08/01 08:06:59;;;;;;;4.60;2.20;;;;;;;24.62;53.69;99165.30;102688;277;120049;-58
2023/08/01 08:09:45;;;;;;;4.50;2.10;;;;;;;24.72;53.48;99167.27;102641;277;103928;-57
2023/08/01 08:12:24;;;;;;;3.20;2.50;;;;;;;24.86;53.48;99167.27;102653;277;114251;-54
2023/08/01 08:14:59;;;;;;;4.00;2.40;;;;;;;24.89;53.08;99162.28;102670;277;95148;-56
2023/08/01 08:17:40;;;;;;;4.70;2.50;;;;;;;24.92;53.18;99158.83;102644;277;97904;-54
2023/08/01 08:20:15;;;;;;;4.60;2.20;;;;;;;25.10;53.38;99160.91;102700;277;120126;-54
2023/08/01 08:22:52;;;;;;;5.90;2.40;;;;;;;25.13;53.07;99155.96;102688;274;105272;-54
2023/08/01 08:25:30;;;;;;;4.30;2.60;;;;;;;25.07;53.17;99153.32;102684;277;115128;-53
2023/08/01 08:28:16;;;;;;;3.40;2.20;;;;;;;24.81;52.89;99155.83;102665;277;94717;-53
2023/08/01 08:31:04;;;;;;;4.60;2.50;;;;;;;24.54;53.03;99151.27;102694;277;98436;-55
2023/08/01 08:33:42;;;;;;;5.10;2.50;;;;;;;24.41;53.32;99150.77;102699;277;120421;-57
2023/08/01 08:36:25;;;;;;;4.40;2.40;;;;;;;24.36;53.43;99145.69;102682;277;105728;-55
2023/08/01 08:39:03;;;;;;;4.00;2.30;;;;;;;24.39;53.62;99148.09;102710;277;114744;-55
2023/08/01 08:41:52;;;;;;;6.40;2.70;;;;;;;24.57;54.07;99150.13;102734;277;94719;-54
2023/08/01 08:44:34;;;;;;;4.30;2.30;;;;;;;24.68;54.26;99154.35;102694;277;98566;-55
2023/08/01 08:47:25;;;;;;;4.60;2.30;;;;;;;24.62;54.09;99147.20;102717;277;120792;-57
2023/08/01 08:50:05;;;;;;;5.00;2.20;;;;;;;24.58;54.00;99150.09;102711;277;105214;-55
2023/08/01 08:52:44;;;;;;;5.70;2.80;;;;;;;24.52;53.92;99144.45;102672;277;113053;-57
2023/08/01 08:55:22;;;;;;;3.80;2.30;;;;;;;24.45;54.09;99145.04;102701;277;95099;-54
2023/08/01 08:58:05;;;;;;;5.70;2.80;;;;;;;24.35;54.08;99143.06;102622;289;98833;-56
2023/08/01 09:00:53;;;;;;;4.00;2.40;;;;;;;24.29;54.23;99142.05;102672;277;119886;-54
2023/08/01 09:03:46;;;;;;;5.30;2.50;;;;;;;24.19;54.20;99143.92;102670;277;105878;-54
2023/08/01 09:06:33;;;;;;;5.20;2.60;;;;;;;24.11;54.46;99139.17;102667;277;113528;-56
2023/08/01 09:09:16;;;;;;;6.10;3.10;;;;;;;24.13;54.68;99130.36;102663;277;95449;-56
2023/08/01 09:11:56;;;;;;;6.30;2.70;;;;;;;24.19;54.70;99126.69;102783;277;97940;-55
2023/08/01 09:14:35;;;;;;;3.20;2.40;;;;;;;24.25;54.55;99123.58;102658;277;119545;-56
2023/08/01 09:17:16;;;;;;;3.50;2.30;;;;;;;24.39;54.60;99115.67;102744;277;104732;-55
2023/08/01 09:20:07;;;;;;;6.30;3.40;;;;;;;24.55;54.50;99112.50;102737;277;114390;-52
2023/08/01 09:22:57;;;;;;;3.40;2.60;;;;;;;24.73;54.51;99109.54;102736;277;94419;-53
2023/08/01 09:25:43;;;;;;;4.20;2.80;;;;;;;24.85;54.14;99103.02;102737;277;98213;-58
2023/08/01 09:28:26;;;;;;;3.70;2.50;;;;;;;25.01;54.16;99103.50;102753;277;119549;-58
2023/08/01 09:31:03;;;;;;;4.00;2.80;;;;;;;25.08;53.54;99102.20;102735;277;106263;-58
2023/08/01 09:33:45;;;;;;;3.20;2.30;;;;;;;25.06;53.34;99099.39;102739;277;114362;-59
2023/08/01 09:36:30;;;;;;;4.80;2.30;;;;;;;25.04;53.65;99100.27;102649;277;94433;-56
2023/08/01 09:39:06;;;;;;;4.40;2.70;;;;;;;25.10;53.73;99105.60;102655;277;97230;-54
2023/08/01 09:41:44;;;;;;;4.50;2.50;;;;;;;25.19;53.76;99103.89;102668;277;118641;-53
2023/08/01 09:44:21;;;;;;;3.50;2.60;;;;;;;25.28;53.81;99106.13;102642;277;105941;-54
2023/08/01 09:47:04;;;;;;;4.00;2.70;;;;;;;25.41;54.05;99108.05;102676;277;114945;-58
2023/08/01 09:49:53;;;;;;;3.90;2.20;;;;;;;25.52;53.93;99105.11;102641;277;94718;-57
2023/08/01 09:52:38;;;;;;;4.40;2.60;;;;;;;25.60;53.90;99101.16;102660;277;97926;-55
2023/08/01 09:55:35;;;;;;;3.70;2.50;;;;;;;25.68;53.64;99101.59;102556;277;118722;-54
2023/08/01 09:58:20;;;;;;;5.90;2.70;;;;;;;25.63;53.12;99096.91;102644;277;104904;-54
2023/08/01 10:00:58;;;;;;;5.60;2.80;;;;;;;25.63;53.01;99094.48;102571;277;116550;-57
2023/08/01 10:03:34;;;;;;;11.40;2.60;;;;;;;25.55;52.87;99099.16;102656;277;92296;-58
2023/08/01 10:06:13;;;;;;;4.30;2.40;;;;;;;25.46;53.04;99099.00;102673;277;97786;-58
2023/08/01 10:08:52;;;;;;;3.90;2.80;;;;;;;25.24;53.21;99100.13;102704;277;119145;-58
2023/08/01 10:11:41;;;;;;;6.00;3.10;;;;;;;25.10;53.61;99105.20;102697;277;105799;-58
2023/08/01 10:14:20;;;;;;;4.00;2.60;;;;;;;24.99;54.09;99105.92;102659;277;113496;-57
2023/08/01 10:17:06;;;;;;;4.80;2.90;;;;;;;24.86;54.50;99111.52;102549;279;96258;-55
2023/08/01 10:19:45;;;;;;;5.40;3.10;;;;;;;24.71;55.20;99113.35;102653;277;97220;-55
2023/08/01 10:22:21;;;;;;;3.60;2.50;;;;;;;24.52;55.71;99113.85;102627;277;119813;-58
2023/08/01 10:24:59;;;;;;;3.50;2.70;;;;;;;24.20;56.13;99112.87;102655;277;106468;-54
2023/08/01 10:27:41;;;;;;;4.30;2.80;;;;;;;24.02;56.81;99115.65;102578;277;114786;-54
2023/08/01 10:30:36;;;;;;;4.30;2.80;;;;;;;23.87;57.56;99119.11;102650;277;94993;-53
2023/08/01 10:33:15;;;;;;;3.60;2.70;;;;;;;23.68;58.27;99119.83;102622;266;97818;-52
2023/08/01 10:35:59;;;;;;;4.10;2.70;;;;;;;23.51;58.84;99118.52;102622;277;119274;-56
2023/08/01 10:38:50;;;;;;;5.00;2.90;;;;;;;23.35;59.44;99118.29;102601;277;105088;-55
2023/08/01 10:41:35;;;;;;;3.60;3.20;;;;;;;23.19;60.21;99117.27;102635;277;114313;-55
2023/08/01 10:44:12;;;;;;;7.10;3.30;;;;;;;23.17;60.65;99115.88;102612;277;94307;-55
2023/08/01 10:47:05;;;;;;;5.20;3.20;;;;;;;23.12;61.21;99112.89;102640;277;97827;-59
2023/08/01 10:49:46;;;;;;;4.10;3.20;;;;;;;23.05;61.88;99112.11;102597;279;120040;-57
2023/08/01 10:52:29;;;;;;;4.70;3.00;;;;;;;23.00;62.37;99107.02;102671;277;105123;-54
2023/08/01 10:55:05;;;;;;;4.30;3.10;;;;;;;22.95;62.38;99106.51;102649;277;114522;-55
2023/08/01 10:57:51;;;;;;;4.20;2.90;;;;;;;22.83;62.86;99105.33;102649;277;92991;-55
2023/08/01 11:00:30;;;;;;;6.10;2.90;;;;;;;22.83;63.45;99104.48;102633;277;97003;-58
2023/08/01 11:03:15;;;;;;;4.80;3.10;;;;;;;22.87;63.92;99104.38;102583;277;118911;-57
2023/08/01 11:06:04;;;;;;;4.70;3.00;;;;;;;22.76;64.51;99101.27;102639;277;105372;-52
2023/08/01 11:08:44;;;;;;;5.50;3.00;;;;;;;22.79;64.86;99105.01;102615;277;114240;-52
2023/08/01 11:11:20;;;;;;;6.00;3.40;;;;;;;22.83;65.35;99103.33;102582;277;95271;-56
2023/08/01 11:14:03;;;;;;;6.00;3.40;;;;;;;22.91;65.52;99102.60;102633;277;98414;-55
2023/08/01 11:16:45;;;;;;;6.00;3.10;;;;;;;22.95;65.45;99101.27;102638;277;120000;-58
2023/08/01 11:19:27;;;;;;;5.00;2.90;;;;;;;23.07;65.72;99097.75;102631;277;106152;-57
2023/08/01 11:22:18;;;;;;;3.60;3.00;;;;;;;23.17;65.82;99092.83;102666;277;115016;-63
2023/08/01 11:24:56;;;;;;;7.50;2.90;;;;;;;23.37;65.94;99092.36;102675;277;93456;-63
2023/08/01 11:27:35;;;;;;;4.50;3.00;;;;;;;23.50;65.99;99092.30;102751;277;95135;-63
2023/08/01 11:30:14;;;;;;;4.50;3.10;;;;;;;23.58;66.21;99091.73;102665;277;118927;-57
2023/08/01 11:32:54;;;;;;;4.20;2.90;;;;;;;23.62;65.72;99090.91;102643;277;104558;-58
2023/08/01 11:35:40;;;;;;;5.50;2.90;;;;;;;23.72;65.83;99086.39;102695;277;114294;-57
2023/08/01 11:38:17;;;;;;;4.40;3.20;;;;;;;23.81;65.78;99085.54;102604;277;93423;-58
2023/08/01 11:40:54;;;;;;;5.50;3.00;;;;;;;23.80;65.42;99085.40;102675;277;96954;-59
2023/08/01 11:43:41;;;;;;;5.40;3.20;;;;;;;23.77;65.21;99083.53;101398;277;1626147;-59
2023/08/01 11:46:20;;;;;;;5.40;3.20;;;;;;;23.72;65.17;99082.27;102646;277;105913;-60
2023/08/01 11:49:01;;;;;;;5.00;2.90;;;;;;;23.83;65.21;99077.61;102599;277;114223;-60
2023/08/01 11:51:46;;;;;;;6.30;3.30;;;;;;;23.87;65.05;99076.36;102503;277;94386;-57
2023/08/01 11:54:22;;;;;;;5.40;2.90;;;;;;;23.84;64.91;99068.94;102620;277;97275;-58
2023/08/01 11:57:04;;;;;;;4.60;2.80;;;;;;;23.81;64.64;99066.13;102556;277;119705;-59
2023/08/01 11:59:50;;;;;;;4.50;2.90;;;;;;;23.71;64.28;99062.46;102619;277;105402;-59
2023/08/01 12:02:31;;;;;;;5.40;2.90;;;;;;;23.66;64.63;99054.52;102640;277;114138;-60
2023/08/01 12:05:12;;;;;;;4.30;2.70;;;;;;;23.72;64.57;99053.08;102643;277;94896;-58
2023/08/01 12:08:08;;;;;;;5.60;3.00;;;;;;;23.74;64.29;99049.62;102648;277;96742;-58
2023/08/01 12:10:49;;;;;;;3.90;2.90;;;;;;;23.67;64.24;99043.73;102658;266;119518;-59
2023/08/01 12:13:35;;;;;;;3.80;2.90;;;;;;;23.66;64.28;99035.84;102739;277;105523;-60
2023/08/01 12:16:11;;;;;;;5.30;3.40;;;;;;;23.62;63.99;99031.06;102725;277;115028;-59
2023/08/01 12:18:53;;;;;;;4.40;3.10;;;;;;;23.61;64.25;99025.79;102698;277;93648;-59
2023/08/01 12:21:39;;;;;;;5.40;3.30;;;;;;;23.67;64.43;99019.60;102716;277;97279;-61
2023/08/01 12:24:15;;;;;;;4.30;3.20;;;;;;;23.65;64.11;99018.09;102686;277;120032;-61
2023/08/01 12:26:56;;;;;;;5.10;3.20;;;;;;;23.65;64.01;99016.81;102649;277;105822;-60
2023/08/01 12:29:38;;;;;;;6.50;3.40;;;;;;;23.73;63.98;99017.97;102497;278;114469;-60
2023/08/01 12:32:16;;;;;;;4.50;3.30;;;;;;;23.81;63.88;99015.42;102513;278;94600;-59